Time;durP1;ratioP1;P1;durP2;ratioP2;P2;SDS_P1;SDS_P2;PMS_P1;PMS_P2;Temp;Humidity;BMP_temperature;BMP_pressure;BME280_temperature;BME280_humidity;BME280_pressure;Samples;Min_cycle;Max_cycle;Signal;HPM_P1;HPM_P2
2021/05/22 00:01:38;;;;;;;;;1.00;1.00;;;;;21.06;38.91;99790.88;5083929;27;45337;-71
2021/05/22 00:04:04;;;;;;;;;2.00;0.00;;;;;21.07;38.44;99792.59;5101862;27;46618;-71
2021/05/22 00:06:29;;;;;;;;;1.00;1.00;;;;;21.08;38.40;99791.66;5101593;27;45355;-71
2021/05/22 00:08:55;;;;;;;;;1.00;1.00;;;;;21.02;38.54;99796.41;5083039;27;59070;-71
2021/05/22 00:11:20;;;;;;;;;3.25;2.00;;;;;20.97;38.67;99787.81;5080980;27;45336;-71
2021/05/22 00:13:45;;;;;;;;;0.00;0.00;;;;;20.93;38.42;99794.19;5066541;27;47059;-71
2021/05/22 00:16:11;;;;;;;;;1.00;1.00;;;;;20.86;38.33;99775.94;5097361;27;45317;-71
2021/05/22 00:18:36;;;;;;;;;1.50;0.50;;;;;20.87;38.43;99790.06;5083149;27;47398;-71
2021/05/22 00:21:02;;;;;;;;;0.75;0.00;;;;;20.86;38.69;99791.84;5101582;27;45665;-71
2021/05/22 00:23:27;;;;;;;;;0.00;0.00;;;;;20.84;38.24;99787.53;5101418;27;46261;-71
2021/05/22 00:25:53;;;;;;;;;2.25;1.00;;;;;20.83;38.46;99786.69;5066221;27;45478;-71
2021/05/22 00:28:18;;;;;;;;;0.00;0.00;;;;;20.80;38.66;99786.84;5083218;27;51136;-71
2021/05/22 00:30:43;;;;;;;;;0.00;0.00;;;;;20.85;38.94;99789.28;5063182;27;45790;-71
2021/05/22 00:33:09;;;;;;;;;1.00;1.00;;;;;20.84;38.94;99791.03;5048917;27;59829;-71
2021/05/22 00:35:34;;;;;;;;;0.75;0.75;;;;;20.84;38.76;99792.84;5083143;27;45752;-71
2021/05/22 00:37:59;;;;;;;;;0.50;0.50;;;;;20.82;38.80;99774.34;5065778;27;53905;-71
2021/05/22 00:40:25;;;;;;;;;0.75;0.75;;;;;20.84;38.95;99782.22;5082744;27;51193;-71
2021/05/22 00:42:50;;;;;;;;;1.00;1.00;;;;;20.82;38.54;99781.47;5066575;27;46435;-71
2021/05/22 00:45:20;;;;;;;;;2.00;2.00;;;;;20.78;38.88;99786.06;5062869;27;45193;-71
2021/05/22 00:47:52;;;;;;;;;2.75;2.00;;;;;20.76;38.88;99777.31;5071264;27;45421;-71
2021/05/22 00:50:26;;;;;;;;;2.50;0.75;;;;;20.76;38.67;99772.03;5083475;27;45238;-71
2021/05/22 00:52:52;;;;;;;;;0.00;0.00;;;;;20.78;38.89;99777.25;5099684;27;46300;-71
2021/05/22 00:55:17;;;;;;;;;2.00;1.00;;;;;20.76;38.55;99769.38;5053069;27;45258;-71
2021/05/22 00:57:43;;;;;;;;;0.75;0.75;;;;;20.77;38.92;99767.56;5082955;27;45249;-72
2021/05/22 01:00:10;;;;;;;;;1.00;1.00;;;;;20.83;38.95;99778.72;5065644;27;45990;-71
2021/05/22 01:02:36;;;;;;;;;0.25;0.00;;;;;20.81;39.21;99775.28;5065897;27;47551;-71
2021/05/22 01:05:01;;;;;;;;;0.25;0.25;;;;;20.80;38.55;99778.88;5082815;27;45476;-72
2021/05/22 01:07:27;;;;;;;;;2.50;2.50;;;;;20.76;38.41;99764.06;5082688;27;46931;-71
2021/05/22 01:09:53;;;;;;;;;1.00;1.00;;;;;20.74;38.84;99770.34;5076814;27;70892;-71
2021/05/22 01:12:19;;;;;;;;;1.75;0.00;;;;;20.72;38.66;99769.56;5065764;27;48266;-71
2021/05/22 01:14:46;;;;;;;;;1.00;1.00;;;;;20.73;39.20;99780.09;5065550;27;45448;-71
2021/05/22 01:17:12;;;;;;;;;1.25;1.00;;;;;20.70;38.86;99764.34;5076672;27;45271;-71
2021/05/22 01:19:52;;;;;;;;;1.00;0.00;;;;;20.65;38.99;99754.88;5082753;27;45446;-71
2021/05/22 01:22:17;;;;;;;;;0.75;0.00;;;;;20.68;38.75;99765.38;5084936;27;45392;-71
2021/05/22 01:24:53;;;;;;;;;0.00;0.00;;;;;20.68;39.13;99762.72;5086031;27;45345;-71
2021/05/22 01:27:19;;;;;;;;;2.00;0.50;;;;;20.70;38.71;99761.69;5084254;27;45405;-71
2021/05/22 01:29:44;;;;;;;;;1.00;1.00;;;;;20.67;39.42;99766.28;5082085;27;45208;-72
2021/05/22 01:32:10;;;;;;;;;2.00;0.75;;;;;20.68;39.09;99768.03;5065750;27;46331;-71
2021/05/22 01:34:35;;;;;;;;;3.25;1.75;;;;;20.65;39.11;99761.06;5082123;27;45319;-71
2021/05/22 01:37:01;;;;;;;;;1.00;1.00;;;;;20.66;39.05;99757.47;5065327;27;45283;-71
2021/05/22 01:39:26;;;;;;;;;1.00;0.75;;;;;20.60;39.24;99755.13;5060967;28;61663;-71
2021/05/22 01:41:51;;;;;;;;;1.00;1.00;;;;;20.61;39.43;99762.16;5044824;28;58143;-71
2021/05/22 01:44:17;;;;;;;;;2.00;2.00;;;;;20.64;38.90;99763.78;5064353;27;45197;-72
2021/05/22 01:46:42;;;;;;;;;1.00;1.00;;;;;20.61;39.48;99759.50;5081870;27;58052;-71
2021/05/22 01:49:08;;;;;;;;;1.00;1.00;;;;;20.57;39.27;99757.91;5048150;27;47232;-72
2021/05/22 01:51:34;;;;;;;;;3.00;0.75;;;;;20.54;39.29;99764.22;5064590;27;61454;-71
2021/05/22 01:54:00;;;;;;;;;0.00;0.00;;;;;20.58;39.30;99767.56;5061814;28;45907;-71
2021/05/22 01:56:25;;;;;;;;;0.50;0.50;;;;;20.60;39.65;99765.72;5065496;27;54544;-71
2021/05/22 01:58:50;;;;;;;;;0.50;0.25;;;;;20.62;39.59;99761.22;5077771;28;63399;-72
2021/05/22 02:01:16;;;;;;;;;0.50;0.25;;;;;20.63;39.64;99754.97;5081562;27;64632;-72
2021/05/22 02:03:47;;;;;;;;;1.00;1.00;;;;;20.65;39.42;99755.75;5081231;27;60770;-71
2021/05/22 02:06:19;;;;;;;;;2.25;0.75;;;;;20.69;39.62;99756.47;5084033;27;45261;-72
2021/05/22 02:08:45;;;;;;;;;1.00;1.00;;;;;20.69;39.06;99761.78;5082205;27;45393;-71
2021/05/22 02:11:11;;;;;;;;;1.00;0.75;;;;;20.64;39.55;99766.44;5085331;27;46155;-72
2021/05/22 02:13:37;;;;;;;;;0.25;0.25;;;;;20.66;39.33;99765.41;5068885;27;45300;-72
2021/05/22 02:16:03;;;;;;;;;1.25;1.00;;;;;20.66;39.64;99754.81;5085403;27;45235;-71
2021/05/22 02:18:31;;;;;;;;;0.75;0.75;;;;;20.65;39.32;99755.75;5085240;27;45185;-71
2021/05/22 02:20:57;;;;;;;;;0.00;0.00;;;;;20.59;39.72;99758.72;5068683;27;45393;-71
2021/05/22 02:23:22;;;;;;;;;3.25;1.75;;;;;20.59;39.42;99758.72;5051334;27;46247;-71
2021/05/22 02:25:49;;;;;;;;;0.00;0.00;;;;;20.54;39.71;99743.00;5085385;27;45272;-72
2021/05/22 02:28:14;;;;;;;;;2.75;0.75;;;;;20.55;39.75;99749.16;5072186;27;45554;-71
2021/05/22 02:30:41;;;;;;;;;1.00;1.00;;;;;20.56;39.46;99743.78;5085024;27;45179;-72
2021/05/22 02:33:06;;;;;;;;;1.00;1.00;;;;;20.52;39.72;99733.44;5085662;27;45520;-71
2021/05/22 02:36:06;;;;;;;;;2.00;1.00;;;;;20.52;39.65;99746.69;5084333;27;66191;-72
2021/05/22 02:38:36;;;;;;;;;1.00;1.00;;;;;20.49;39.68;99741.50;5083740;27;45434;-71
2021/05/22 02:41:04;;;;;;;;;1.50;1.50;;;;;20.48;39.90;99753.91;5084891;27;45381;-71
2021/05/22 02:43:30;;;;;;;;;0.75;0.00;;;;;20.50;40.03;99745.88;5085069;27;45443;-71
2021/05/22 02:45:55;;;;;;;;;3.75;1.25;;;;;20.52;39.84;99741.38;5084981;27;45409;-71
2021/05/22 02:48:21;;;;;;;;;2.75;2.00;;;;;20.53;39.61;99743.09;5085117;27;45354;-71
2021/05/22 02:50:48;;;;;;;;;1.25;1.00;;;;;20.54;40.01;99744.81;5084797;27;45362;-72
2021/05/22 02:53:14;;;;;;;;;0.50;0.50;;;;;20.53;40.31;99754.56;5102995;27;45317;-71
2021/05/22 02:55:40;;;;;;;;;0.50;0.50;;;;;20.55;40.23;99750.03;5084843;27;45482;-71
2021/05/22 02:58:05;;;;;;;;;1.00;0.75;;;;;20.59;40.04;99751.63;5067090;27;66079;-71
2021/05/22 03:00:31;;;;;;;;;2.00;1.00;;;;;20.63;40.03;99752.31;5084418;27;46119;-71
2021/05/22 03:02:58;;;;;;;;;1.75;1.00;;;;;20.67;39.82;99745.91;5084815;27;45333;-71
2021/05/22 03:05:23;;;;;;;;;0.75;0.00;;;;;20.65;39.92;99747.78;5084598;27;45264;-71
2021/05/22 03:07:49;;;;;;;;;1.25;0.25;;;;;20.68;39.79;99750.31;5084464;27;45472;-71
2021/05/22 03:10:15;;;;;;;;;0.00;0.00;;;;;20.68;40.07;99752.09;5102685;27;45343;-71
2021/05/22 03:12:40;;;;;;;;;0.00;0.00;;;;;20.68;39.65;99752.09;5067830;27;45351;-71
2021/05/22 03:15:06;;;;;;;;;0.00;0.00;;;;;20.69;39.62;99757.34;5084233;27;51351;-71
2021/05/22 03:17:32;;;;;;;;;3.00;0.50;;;;;20.70;39.54;99748.44;5102412;27;45540;-71
2021/05/22 03:19:57;;;;;;;;;1.00;1.00;;;;;20.70;39.85;99747.59;5082980;27;70341;-71
2021/05/22 03:22:23;;;;;;;;;1.25;1.00;;;;;20.70;39.89;99751.09;5102378;27;45410;-71
2021/05/22 03:24:49;;;;;;;;;2.50;1.50;;;;;20.72;39.67;99754.53;5102670;27;45362;-71
2021/05/22 03:27:14;;;;;;;;;0.25;0.25;;;;;20.69;40.05;99746.72;5063987;28;45529;-71
2021/05/22 03:29:39;;;;;;;;;0.00;0.00;;;;;20.68;39.84;99752.97;5100864;27;46528;-71
2021/05/22 03:32:05;;;;;;;;;1.00;1.00;;;;;20.67;39.50;99756.53;5066747;27;57942;-71
2021/05/22 03:34:30;;;;;;;;;0.75;0.00;;;;;20.68;39.60;99752.97;5102734;27;45206;-71
2021/05/22 03:36:56;;;;;;;;;1.00;1.00;;;;;20.69;39.48;99770.59;5102361;27;45340;-71
2021/05/22 03:39:21;;;;;;;;;1.00;1.00;;;;;20.64;39.74;99753.19;5061475;28;48088;-71
2021/05/22 03:41:47;;;;;;;;;1.00;1.00;;;;;20.58;39.55;99752.53;5075744;27;45275;-71
2021/05/22 03:44:12;;;;;;;;;1.00;1.00;;;;;20.53;39.90;99759.00;5085774;27;45318;-71
2021/05/22 03:46:38;;;;;;;;;1.75;1.00;;;;;20.51;39.74;99758.22;5101861;27;57424;-71
2021/05/22 03:49:03;;;;;;;;;1.00;1.00;;;;;20.52;40.14;99759.94;5100834;27;45291;-71
2021/05/22 03:51:29;;;;;;;;;1.75;1.00;;;;;20.50;39.94;99759.13;5083264;27;57105;-71
2021/05/22 03:53:54;;;;;;;;;2.75;0.50;;;;;20.49;39.93;99760.06;5066954;27;45306;-71
2021/05/22 03:56:19;;;;;;;;;1.00;1.00;;;;;20.50;39.80;99753.81;5100349;27;63373;-71
2021/05/22 03:58:45;;;;;;;;;2.25;2.00;;;;;20.54;40.31;99760.72;5101683;27;45359;-71
2021/05/22 04:01:10;;;;;;;;;1.25;1.00;;;;;20.52;40.03;99757.28;5102196;27;45308;-71
2021/05/22 04:03:36;;;;;;;;;0.50;0.50;;;;;20.50;40.43;99756.47;5102039;27;45681;-71
2021/05/22 04:06:01;;;;;;;;;3.00;1.00;;;;;20.53;40.02;99770.44;5100400;27;45483;-71
2021/05/22 04:08:27;;;;;;;;;3.00;1.25;;;;;20.55;40.11;99773.03;5101500;27;45486;-71
2021/05/22 04:10:52;;;;;;;;;1.00;1.00;;;;;20.52;40.13;99767.88;5083728;27;45318;-71
2021/05/22 04:13:18;;;;;;;;;1.00;1.00;;;;;20.54;40.06;99768.66;5101836;27;45561;-71
2021/05/22 04:15:43;;;;;;;;;2.00;1.00;;;;;20.56;39.79;99786.22;5101813;27;45265;-71
2021/05/22 04:18:09;;;;;;;;;2.00;2.00;;;;;20.52;40.25;99781.13;5100865;27;64062;-71
2021/05/22 04:20:35;;;;;;;;;1.50;0.50;;;;;20.52;40.13;99789.09;5066303;27;45272;-71
2021/05/22 04:23:00;;;;;;;;;3.25;1.50;;;;;20.49;40.21;99782.13;5101458;27;45249;-71
2021/05/22 04:25:25;;;;;;;;;1.00;1.00;;;;;20.51;40.32;99787.38;5065851;27;63361;-71
2021/05/22 04:27:51;;;;;;;;;2.00;1.25;;;;;20.53;39.91;99786.34;5100525;27;60352;-71
2021/05/22 04:30:17;;;;;;;;;1.00;0.75;;;;;20.53;40.06;99794.31;5083121;27;46455;-72
2021/05/22 04:32:42;;;;;;;;;1.75;1.00;;;;;20.56;39.54;99791.50;5083399;27;45288;-71
2021/05/22 04:35:08;;;;;;;;;2.75;2.75;;;;;20.55;40.16;99802.19;5101598;27;45213;-71
2021/05/22 04:37:33;;;;;;;;;2.00;1.00;;;;;20.55;39.99;99795.09;5066039;27;46446;-71
2021/05/22 04:39:59;;;;;;;;;1.00;1.00;;;;;20.53;40.14;99804.91;5062747;28;45248;-71
2021/05/22 04:42:24;;;;;;;;;1.75;0.50;;;;;20.50;40.29;99806.84;5098480;27;45414;-71
2021/05/22 04:44:50;;;;;;;;;3.25;2.25;;;;;20.50;40.22;99799.78;5083183;27;45445;-71
2021/05/22 04:47:15;;;;;;;;;3.00;1.75;;;;;20.51;39.94;99811.22;5082804;27;50118;-71
2021/05/22 04:49:41;;;;;;;;;1.00;1.00;;;;;20.49;40.27;99805.13;5083178;27;45332;-71
2021/05/22 04:52:06;;;;;;;;;2.00;1.00;;;;;20.49;39.89;99808.63;5082902;27;45255;-71
2021/05/22 04:54:32;;;;;;;;;2.25;0.50;;;;;20.43;39.92;99800.97;5083078;27;45349;-71
2021/05/22 04:56:57;;;;;;;;;0.00;0.00;;;;;20.46;40.42;99805.25;5079546;27;47125;-71
2021/05/22 04:59:23;;;;;;;;;1.00;1.00;;;;;20.43;40.07;99808.94;5082232;27;62308;-71
2021/05/22 05:01:48;;;;;;;;;1.75;1.75;;;;;20.43;40.32;99816.00;5099865;27;45356;-71
2021/05/22 05:04:13;;;;;;;;;2.00;1.00;;;;;20.43;40.33;99808.03;5065480;27;55491;-71
2021/05/22 05:06:39;;;;;;;;;3.75;2.00;;;;;20.43;40.54;99813.34;5082265;27;47207;-71
2021/05/22 05:09:05;;;;;;;;;2.25;1.00;;;;;20.43;40.48;99810.69;5082729;27;45496;-71
2021/05/22 05:11:31;;;;;;;;;2.25;1.00;;;;;20.47;40.31;99822.88;5082716;27;45212;-71
2021/05/22 05:13:56;;;;;;;;;2.00;1.00;;;;;20.48;40.19;99820.16;5065899;27;45345;-72
2021/05/22 05:16:22;;;;;;;;;2.25;1.00;;;;;20.50;40.42;99826.28;5082559;27;46179;-72
2021/05/22 05:18:47;;;;;;;;;0.00;0.00;;;;;20.51;40.23;99825.34;5047951;27;63099;-71
2021/05/22 05:21:12;;;;;;;;;3.00;1.75;;;;;20.50;40.36;99820.09;5065166;27;55274;-72
2021/05/22 05:23:38;;;;;;;;;1.50;1.25;;;;;20.54;40.41;99826.97;5048605;27;54211;-71
2021/05/22 05:26:03;;;;;;;;;1.00;1.00;;;;;20.16;39.12;99834.88;5065459;27;48139;-87
2021/05/22 05:28:29;;;;;;;;;1.75;1.75;;;;;19.35;40.31;99840.94;5065728;27;45872;-89
2021/05/22 05:30:54;;;;;;;;;1.00;1.00;;;;;18.61;40.33;99842.97;5065692;27;45446;-89
2021/05/22 05:33:20;;;;;;;;;3.50;0.75;;;;;18.02;41.93;99845.16;5099676;27;45385;-77
2021/05/22 05:35:47;;;;;;;;;2.00;2.00;;;;;17.43;43.08;99835.72;5100690;27;56303;-85
2021/05/22 05:38:12;;;;;;;;;1.00;1.00;;;;;16.98;44.16;99845.13;5082850;27;45689;-79
2021/05/22 05:40:38;;;;;;;;;2.75;1.75;;;;;16.65;44.88;99843.41;5074343;27;45347;-75
2021/05/22 05:43:09;;;;;;;;;4.00;3.00;;;;;16.38;45.40;99849.50;5102980;27;45535;-83
2021/05/22 05:45:34;;;;;;;;;6.75;3.00;;;;;16.10;45.58;99850.28;5086658;27;46195;-82
2021/05/22 05:47:59;;;;;;;;;2.00;2.00;;;;;15.82;46.58;99855.44;5085456;27;60804;-84
2021/05/22 05:50:25;;;;;;;;;2.25;2.25;;;;;15.65;46.92;99848.88;5085571;27;45317;-81
2021/05/22 05:52:51;;;;;;;;;7.00;4.00;;;;;15.49;48.30;99861.53;5102712;27;45278;-83
2021/05/22 05:55:26;;;;;;;;;4.00;4.00;;;;;15.28;48.69;99857.63;5090412;27;48013;-81
2021/05/22 05:57:53;;;;;;;;;4.00;2.25;;;;;15.14;50.05;99871.13;5102884;27;45365;-77
2021/05/22 06:00:18;;;;;;;;;2.00;1.75;;;;;15.05;49.80;99871.34;5085752;27;45593;-77
2021/05/22 06:02:44;;;;;;;;;2.75;1.00;;;;;14.96;49.36;99876.81;5102638;27;45391;-76
2021/05/22 06:05:10;;;;;;;;;3.00;1.75;;;;;14.81;49.10;99864.00;5102393;27;45636;-77
2021/05/22 06:07:36;;;;;;;;;3.75;2.00;;;;;14.72;49.89;99877.34;5098584;27;45148;-76
2021/05/22 06:10:03;;;;;;;;;3.00;1.25;;;;;14.67;50.06;99878.28;5065589;27;45218;-77
2021/05/22 06:12:28;;;;;;;;;2.00;1.00;;;;;14.74;50.20;99880.78;5045055;28;45201;-76
2021/05/22 06:15:04;;;;;;;;;1.75;1.75;;;;;14.65;50.33;99876.59;5062974;28;45421;-76
2021/05/22 06:17:30;;;;;;;;;2.25;2.25;;;;;14.64;50.52;99888.88;5040418;28;45519;-85
2021/05/22 06:19:55;;;;;;;;;3.00;1.00;;;;;14.79;51.00;99894.69;5081852;28;45518;-84
2021/05/22 06:22:21;;;;;;;;;4.00;3.25;;;;;14.82;50.24;99876.22;5047839;28;45941;-86
2021/05/22 06:24:47;;;;;;;;;2.00;2.00;;;;;15.05;51.65;99902.00;5062378;28;45778;-86
2021/05/22 06:27:12;;;;;;;;;3.00;1.50;;;;;15.35;49.99;99874.13;5052075;28;45381;-84
2021/05/22 06:29:38;;;;;;;;;2.50;2.00;;;;;15.71;49.85;99875.88;5049746;28;45408;-84
2021/05/22 06:32:03;;;;;;;;;2.00;1.75;;;;;16.10;48.29;99881.00;5064519;28;52143;-85
2021/05/22 06:34:29;;;;;;;;;6.00;2.25;;;;;16.23;48.01;99899.94;5064608;28;45855;-83
2021/05/22 06:36:54;;;;;;;;;1.00;1.00;;;;;16.43;47.95;99896.78;5064943;28;45383;-87
2021/05/22 06:39:20;;;;;;;;;3.00;2.00;;;;;16.76;47.18;99890.56;5046135;28;45513;-84
2021/05/22 06:41:46;;;;;;;;;5.75;3.00;;;;;17.10;46.94;99900.06;5040096;28;45464;-87
2021/05/22 06:44:17;;;;;;;;;3.50;2.00;;;;;17.35;45.57;99901.03;5047728;28;47376;-85
2021/05/22 06:46:49;;;;;;;;;5.50;0.00;;;;;17.46;45.00;99905.97;5065664;28;45334;-83
2021/05/22 06:49:15;;;;;;;;;3.25;1.00;;;;;17.63;45.29;99906.28;5049502;28;45240;-82
2021/05/22 06:51:40;;;;;;;;;4.25;3.75;;;;;17.99;46.95;99911.28;5047236;28;45594;-69
2021/05/22 06:54:06;;;;;;;;;4.00;3.00;;;;;18.41;46.93;99916.81;5081197;28;45325;-68
2021/05/22 06:56:31;;;;;;;;;2.00;1.00;;;;;18.85;46.03;99911.69;5064451;28;46447;-67
2021/05/22 06:58:56;;;;;;;;;5.75;1.75;;;;;19.19;45.46;99911.25;5064358;27;45488;-67
2021/05/22 07:01:22;;;;;;;;;4.00;1.50;;;;;19.54;44.87;99914.28;5044169;28;46199;-69
2021/05/22 07:03:48;;;;;;;;;3.00;2.00;;;;;19.86;44.24;99924.44;5043813;28;46979;-68
2021/05/22 07:06:13;;;;;;;;;6.25;5.00;;;;;20.19;48.04;99924.78;5043927;28;45310;-69
2021/05/22 07:08:39;;;;;;;;;1.75;1.00;;;;;20.48;46.32;99926.19;5062013;28;45638;-68
2021/05/22 07:11:04;;;;;;;;;3.00;3.00;;;;;20.75;44.85;99926.72;5062243;28;45171;-69
2021/05/22 07:13:30;;;;;;;;;4.00;4.00;;;;;21.00;44.32;99936.22;5043594;28;46473;-69
2021/05/22 07:15:55;;;;;;;;;2.75;2.25;;;;;21.21;42.97;99927.28;5065515;28;64388;-69
2021/05/22 07:18:21;;;;;;;;;4.50;3.00;;;;;21.37;42.52;99933.59;5081995;28;45289;-69
2021/05/22 07:20:48;;;;;;;;;3.25;1.25;;;;;21.54;41.82;99938.06;5046756;28;54837;-69
2021/05/22 07:23:14;;;;;;;;;3.00;1.00;;;;;21.66;41.48;99940.13;5047182;28;45442;-69
2021/05/22 07:25:39;;;;;;;;;3.00;2.00;;;;;21.76;40.90;99940.53;5064245;28;45551;-69
2021/05/22 07:28:07;;;;;;;;;1.00;1.00;;;;;21.88;40.19;99953.19;5082067;28;45469;-69
2021/05/22 07:30:32;;;;;;;;;2.00;0.25;;;;;21.96;39.96;99959.00;5063814;28;45540;-70
2021/05/22 07:32:58;;;;;;;;;1.00;1.00;;;;;22.02;39.19;99955.19;5063526;28;47203;-70
2021/05/22 07:35:23;;;;;;;;;1.75;1.50;;;;;22.04;39.15;99960.41;5063942;28;45362;-69
2021/05/22 07:37:49;;;;;;;;;2.00;2.00;;;;;22.12;39.03;99968.88;5081131;28;54490;-68
2021/05/22 07:40:14;;;;;;;;;1.00;1.00;;;;;22.19;38.63;99973.81;5046442;28;61149;-69
2021/05/22 07:42:40;;;;;;;;;1.25;1.00;;;;;22.25;38.25;99977.97;5063603;28;45531;-69
2021/05/22 07:45:06;;;;;;;;;1.50;1.50;;;;;22.32;38.52;99986.47;5030302;28;45245;-68
2021/05/22 07:47:31;;;;;;;;;1.00;1.00;;;;;22.34;38.11;99988.13;5063606;28;45531;-69
2021/05/22 07:49:56;;;;;;;;;0.25;0.25;;;;;22.35;37.36;99989.84;5081298;28;63002;-68
2021/05/22 07:52:22;;;;;;;;;2.00;2.00;;;;;22.35;37.84;99994.31;5062843;28;51194;-69
2021/05/22 07:54:47;;;;;;;;;3.00;1.00;;;;;22.36;37.97;99990.72;5063711;28;45273;-68
2021/05/22 07:57:13;;;;;;;;;3.00;2.00;;;;;22.34;38.29;99996.13;5081587;28;45199;-69
2021/05/22 07:59:39;;;;;;;;;1.25;1.25;;;;;22.37;38.00;99989.75;5082074;28;45222;-68
2021/05/22 08:02:05;;;;;;;;;2.50;2.00;;;;;22.35;37.98;99997.81;5080817;28;60236;-69
2021/05/22 08:04:30;;;;;;;;;3.00;2.00;;;;;22.33;38.17;99994.41;5062264;28;45417;-70
2021/05/22 08:06:55;;;;;;;;;3.00;1.75;;;;;22.36;38.04;100002.19;5080408;28;58446;-70
2021/05/22 08:09:24;;;;;;;;;1.50;1.50;;;;;22.37;38.03;99995.09;5063209;28;45617;-69
2021/05/22 08:11:49;;;;;;;;;2.50;2.00;;;;;22.37;38.14;99995.94;5045675;28;61634;-69
2021/05/22 08:14:15;;;;;;;;;3.00;2.25;;;;;22.40;38.20;100001.09;5062928;28;49700;-70
2021/05/22 08:16:41;;;;;;;;;1.75;1.75;;;;;22.41;37.90;100000.16;5063112;28;45419;-69
2021/05/22 08:19:06;;;;;;;;;1.50;1.00;;;;;22.40;37.87;100001.09;5081170;28;45300;-70
2021/05/22 08:21:32;;;;;;;;;2.75;1.00;;;;;22.37;37.77;100008.38;5080802;28;46170;-69
2021/05/22 08:24:00;;;;;;;;;2.25;0.00;;;;;22.35;37.61;100004.94;5081279;28;45253;-71
2021/05/22 08:26:26;;;;;;;;;1.00;1.00;;;;;22.34;37.80;100000.56;5062977;28;45334;-70
2021/05/22 08:28:52;;;;;;;;;1.00;0.00;;;;;22.32;37.68;100008.59;5063085;28;45311;-69
2021/05/22 08:31:20;;;;;;;;;1.00;1.00;;;;;22.32;37.98;100011.25;5045881;28;45443;-69
2021/05/22 08:33:46;;;;;;;;;2.00;2.00;;;;;22.32;37.92;100005.94;5063162;28;45310;-70
2021/05/22 08:36:11;;;;;;;;;4.00;2.00;;;;;22.33;38.13;100010.34;5080836;28;45234;-69
2021/05/22 08:38:37;;;;;;;;;2.00;1.00;;;;;22.36;38.05;99999.53;5081068;28;45224;-69
2021/05/22 08:41:04;;;;;;;;;1.00;1.00;;;;;22.38;37.53;100000.31;5080579;28;46373;-69
2021/05/22 08:43:29;;;;;;;;;2.00;1.00;;;;;22.36;37.54;99998.69;5081229;28;45306;-69
2021/05/22 08:45:54;;;;;;;;;1.00;1.00;;;;;22.31;37.60;100001.56;5080978;28;45416;-70
2021/05/22 08:48:20;;;;;;;;;2.75;1.25;;;;;22.27;37.46;100021.28;5062964;28;45339;-69
2021/05/22 08:50:45;;;;;;;;;1.50;1.50;;;;;22.20;37.72;100010.09;5062182;28;47908;-68
2021/05/22 08:53:11;;;;;;;;;4.25;2.00;;;;;22.19;37.85;100019.00;5045684;28;45493;-70
2021/05/22 08:55:37;;;;;;;;;1.75;1.00;;;;;22.18;37.82;100033.22;5045724;28;45352;-69
2021/05/22 08:58:03;;;;;;;;;1.50;1.50;;;;;22.13;37.69;100019.31;5062526;28;45327;-68
2021/05/22 09:00:31;;;;;;;;;2.75;1.00;;;;;22.15;37.84;100017.44;5045617;28;45972;-67
2021/05/22 09:02:56;;;;;;;;;1.25;0.75;;;;;22.15;37.76;100014.78;5062987;28;45269;-70
2021/05/22 09:05:26;;;;;;;;;2.00;1.00;;;;;22.14;37.68;100017.50;5061749;28;59493;-69
2021/05/22 09:07:52;;;;;;;;;2.50;2.00;;;;;;;;5062144;28;45375;-69
2021/05/22 09:10:25;;;;;;;;;1.00;1.00;;;;;22.05;37.87;100026.75;5080443;28;46176;-69
2021/05/22 09:12:52;;;;;;;;;2.00;0.50;;;;;22.04;37.99;100029.50;5062888;28;45280;-69
2021/05/22 09:15:19;;;;;;;;;3.00;1.00;;;;;21.99;38.20;100033.25;5080472;28;45290;-70
2021/05/22 09:17:47;;;;;;;;;2.25;1.25;;;;;21.95;38.00;100036.97;5080264;28;45226;-70
2021/05/22 09:20:23;;;;;;;;;1.00;1.00;;;;;21.91;38.52;100022.16;5062101;28;46408;-67
2021/05/22 09:23:18;;;;;;;;;2.00;2.00;;;;;21.90;38.50;100024.88;5061722;28;45195;-69
2021/05/22 09:25:50;;;;;;;;;3.00;1.00;;;;;21.91;38.53;100034.56;5043136;28;45317;-68
2021/05/22 09:28:17;;;;;;;;;5.00;3.75;;;;;21.90;40.02;100031.06;5080442;28;45484;-71
2021/05/22 09:30:46;;;;;;;;;3.75;3.75;;;;;21.92;40.51;100036.28;5080953;28;45441;-69
2021/05/22 09:33:13;;;;;;;;;3.00;1.50;;;;;21.93;39.87;100030.03;5045464;28;45605;-69
2021/05/22 09:35:38;;;;;;;;;2.00;1.50;;;;;21.92;40.18;100033.63;5080235;28;45251;-68
2021/05/22 09:38:04;;;;;;;;;2.50;2.50;;;;;21.93;39.34;100025.56;5079672;28;53922;-68
2021/05/22 09:40:31;;;;;;;;;4.00;1.25;;;;;21.90;39.40;100027.53;5079530;28;53597;-68
2021/05/22 09:42:57;;;;;;;;;3.25;2.25;;;;;21.90;39.66;100033.72;5062625;28;45295;-69
2021/05/22 09:45:24;;;;;;;;;1.00;1.00;;;;;21.88;39.47;100024.06;5080158;28;45515;-67
2021/05/22 09:47:49;;;;;;;;;0.75;0.75;;;;;21.90;39.18;100027.53;5062288;28;45299;-67
2021/05/22 09:50:32;;;;;;;;;1.75;1.75;;;;;21.89;39.53;100033.75;5079871;28;45372;-69
2021/05/22 09:52:58;;;;;;;;;1.50;1.00;;;;;21.87;39.14;100035.63;5079831;28;45247;-74
2021/05/22 09:55:23;;;;;;;;;1.00;1.00;;;;;21.89;39.11;100028.44;5045012;28;45217;-67
2021/05/22 09:57:50;;;;;;;;;2.75;1.00;;;;;21.77;38.85;100019.28;5045078;28;45246;-69
2021/05/22 10:00:26;;;;;;;;;1.50;1.00;;;;;21.89;39.29;100033.75;5079568;28;45444;-69
2021/05/22 10:02:57;;;;;;;;;1.50;1.50;;;;;21.91;39.40;100035.44;5061915;28;45502;-67
2021/05/22 10:05:23;;;;;;;;;2.00;2.00;;;;;22.03;39.59;100025.97;5029279;28;45369;-68
2021/05/22 10:07:53;;;;;;;;;3.00;3.00;;;;;22.09;38.47;100035.50;5061367;28;45324;-70
2021/05/22 10:10:19;;;;;;;;;1.00;1.00;;;;;22.12;38.35;100025.56;5061507;28;46336;-69
2021/05/22 10:12:46;;;;;;;;;3.50;1.50;;;;;22.14;38.48;100029.00;5079524;28;45230;-67
2021/05/22 10:15:18;;;;;;;;;1.75;1.00;;;;;22.14;38.36;100021.03;5080084;28;45152;-68
2021/05/22 10:17:43;;;;;;;;;1.50;1.50;;;;;22.15;38.02;100037.81;5045203;28;45345;-67
2021/05/22 10:20:10;;;;;;;;;1.25;1.25;;;;;22.12;37.78;100036.19;5079488;28;46163;-66
2021/05/22 10:22:35;;;;;;;;;1.25;1.00;;;;;22.10;37.64;100047.84;5079132;28;45249;-67
2021/05/22 10:25:03;;;;;;;;;2.00;2.00;;;;;22.09;37.97;100040.81;5079788;28;45563;-67
2021/05/22 10:27:29;;;;;;;;;1.00;1.00;;;;;22.07;38.44;100043.53;5081465;28;45157;-66
2021/05/22 10:29:54;;;;;;;;;0.50;0.25;;;;;22.07;38.27;100045.31;5083206;28;46134;-67
2021/05/22 10:32:22;;;;;;;;;1.50;1.25;;;;;22.06;38.71;100048.88;5082779;28;45454;-68
2021/05/22 10:34:49;;;;;;;;;1.00;1.00;;;;;22.06;38.07;100041.75;5065266;28;45388;-68
2021/05/22 10:37:37;;;;;;;;;3.50;2.75;;;;;22.05;38.35;100044.50;5064490;28;45446;-67
2021/05/22 10:40:03;;;;;;;;;1.00;1.00;;;;;22.02;38.21;100041.06;5082642;28;45231;-68
2021/05/22 10:42:32;;;;;;;;;1.25;1.00;;;;;22.01;38.10;100042.00;5064553;28;45386;-68
2021/05/22 10:44:58;;;;;;;;;3.25;1.00;;;;;21.99;37.99;100032.41;5081616;28;45389;-68
2021/05/22 10:47:28;;;;;;;;;1.00;1.00;;;;;21.94;37.99;100040.59;5064475;28;45359;-72
2021/05/22 10:49:57;;;;;;;;;1.00;1.00;;;;;21.95;37.65;100039.63;5047674;28;47052;-69
2021/05/22 10:52:29;;;;;;;;;0.50;0.50;;;;;21.93;37.83;100044.19;5064157;28;45420;-69
2021/05/22 10:55:04;;;;;;;;;1.00;1.00;;;;;21.92;37.78;100050.44;5064416;28;45323;-68
2021/05/22 10:57:32;;;;;;;;;0.25;0.25;;;;;21.92;37.36;100036.28;5081509;28;45734;-67
2021/05/22 11:00:20;;;;;;;;;2.75;1.00;;;;;21.91;37.21;100050.50;5064241;28;46818;-68
2021/05/22 11:03:07;;;;;;;;;2.50;1.00;;;;;21.89;36.73;100042.63;5046841;28;45471;-67
2021/05/22 11:05:35;;;;;;;;;1.00;1.00;;;;;21.87;36.34;100028.53;5046527;28;45485;-66
2021/05/22 11:08:03;;;;;;;;;0.25;0.25;;;;;21.86;36.73;100042.75;5081367;28;45421;-67
2021/05/22 11:10:43;;;;;;;;;2.00;0.00;;;;;21.86;36.71;100034.78;5082479;28;45879;-67
2021/05/22 11:13:21;;;;;;;;;1.25;0.50;;;;;21.89;36.82;100045.28;5063389;28;45287;-67
2021/05/22 11:15:57;;;;;;;;;2.00;0.75;;;;;21.89;36.66;100066.53;5082568;28;45470;-67
2021/05/22 11:18:32;;;;;;;;;0.50;0.50;;;;;21.88;36.89;100051.50;5082068;28;45279;-71
2021/05/22 11:21:20;;;;;;;;;1.00;1.00;;;;;21.88;36.92;100045.31;5080461;28;48925;-67
2021/05/22 11:23:57;;;;;;;;;0.50;0.50;;;;;21.87;36.68;100040.94;5081774;28;45300;-68
2021/05/22 11:27:02;;;;;;;;;1.00;1.00;;;;;21.86;37.39;100036.56;5080686;28;45444;-71
2021/05/22 11:29:55;;;;;;;;;2.00;1.00;;;;;21.86;37.29;100040.09;5080606;28;45237;-67
2021/05/22 11:32:52;;;;;;;;;3.00;0.25;;;;;21.85;37.66;100043.69;5081814;28;46286;-65